createdAt,value
2018-05-23T00:00:28.730Z,100229.48
2018-05-23T00:01:35.275Z,100226.11
2018-05-23T00:02:41.046Z,100234.18
2018-05-23T00:03:46.803Z,100231.73
2018-05-23T00:04:53.015Z,100233.59
2018-05-23T00:05:59.202Z,100235.04
2018-05-23T00:07:04.988Z,100233.25
2018-05-23T00:08:10.741Z,100234.41
2018-05-23T00:09:16.507Z,100231.61
2018-05-23T00:10:23.037Z,100235.33
2018-05-23T00:11:28.791Z,100236.08
2018-05-23T00:12:34.585Z,100238.38
2018-05-23T00:13:40.375Z,100238.38
2018-05-23T00:14:46.127Z,100238.62
2018-05-23T00:15:52.856Z,100247.24
2018-05-23T00:16:58.614Z,100249.05
2018-05-23T00:18:04.392Z,100247.24
2018-05-23T00:19:10.152Z,100256.09
2018-05-23T00:20:15.908Z,100248.99
2018-05-23T00:21:21.668Z,100258.22
2018-05-23T00:22:27.420Z,100257.54
2018-05-23T00:23:33.186Z,100251.92
2018-05-23T00:24:39.703Z,100253.63
2018-05-23T00:25:45.475Z,100254.78
2018-05-23T00:26:52.003Z,100253.52
2018-05-23T00:27:57.773Z,100256.33
2018-05-23T00:29:04.325Z,100255.84
2018-05-23T00:30:09.874Z,100252.25
2018-05-23T00:31:15.649Z,100254.11
2018-05-23T00:32:21.402Z,100259.41
2018-05-23T00:33:27.390Z,100253.88
2018-05-23T00:34:33.163Z,100258.03
2018-05-23T00:35:38.931Z,100255.16
2018-05-23T00:36:44.687Z,100258.11
2018-05-23T00:37:50.518Z,100260.77
2018-05-23T00:38:56.419Z,100255.52
2018-05-23T00:40:02.980Z,100255.89
2018-05-23T00:41:09.297Z,100260.40
2018-05-23T00:42:15.060Z,100258.34
2018-05-23T00:43:21.259Z,100258.06
2018-05-23T00:44:27.024Z,100257.91
2018-05-23T00:45:32.807Z,100260.66
2018-05-23T00:46:38.550Z,100253.41
2018-05-23T00:47:44.297Z,100252.98
2018-05-23T00:48:50.829Z,100257.16
2018-05-23T00:49:56.594Z,100254.08
2018-05-23T00:51:02.369Z,100258.42
2018-05-23T00:52:07.866Z,100258.53
2018-05-23T00:53:13.618Z,100262.45
2018-05-23T00:54:20.132Z,100260.23
2018-05-23T00:55:34.726Z,100256.79
2018-05-23T00:56:41.270Z,100257.63
2018-05-23T00:57:47.036Z,100256.42
2018-05-23T00:58:53.545Z,100255.15
2018-05-23T00:59:59.657Z,100258.89
2018-05-23T01:01:05.407Z,100255.66
2018-05-23T01:02:11.195Z,100253.95
2018-05-23T01:03:16.935Z,100259.73
2018-05-23T01:04:22.690Z,100254.38
2018-05-23T01:05:28.454Z,100259.68
2018-05-23T01:06:34.970Z,100262.49
2018-05-23T01:07:40.754Z,100262.97
2018-05-23T01:08:47.259Z,100262.07
2018-05-23T01:09:53.015Z,100264.72
2018-05-23T01:10:58.555Z,100267.09
2018-05-23T01:12:04.355Z,100269.73
2018-05-23T01:13:09.791Z,100269.84
2018-05-23T01:14:15.610Z,100269.90
2018-05-23T01:15:22.124Z,100271.70
2018-05-23T01:16:27.894Z,100271.11
2018-05-23T01:17:33.646Z,100273.86
2018-05-23T01:18:39.419Z,100277.34
2018-05-23T01:19:45.176Z,100275.06
2018-05-23T01:20:50.389Z,100274.64
2018-05-23T01:21:56.132Z,100280.05
2018-05-23T01:23:01.890Z,100277.55
2018-05-23T01:24:07.678Z,100275.80
2018-05-23T01:25:14.184Z,100281.78
2018-05-23T01:26:19.933Z,100282.52
2018-05-23T01:27:25.689Z,100274.14
2018-05-23T01:28:31.437Z,100280.34
2018-05-23T01:29:37.206Z,100278.84
2018-05-23T01:30:42.946Z,100280.48
2018-05-23T01:31:48.699Z,100281.66
2018-05-23T01:32:55.206Z,100279.55
2018-05-23T01:34:00.971Z,100282.75
2018-05-23T01:35:06.739Z,100284.13
2018-05-23T01:36:13.265Z,100290.26
2018-05-23T01:37:19.016Z,100285.34
2018-05-23T01:38:25.693Z,100293.75
2018-05-23T01:39:32.207Z,100290.84
2018-05-23T01:40:37.983Z,100288.56
2018-05-23T01:41:43.745Z,100291.80
2018-05-23T01:42:50.251Z,100292.64
2018-05-23T01:43:55.459Z,100286.45
2018-05-23T01:45:00.961Z,100293.20
2018-05-23T01:46:07.496Z,100298.50
2018-05-23T01:47:13.256Z,100299.03
2018-05-23T01:48:19.005Z,100298.98
2018-05-23T01:49:28.466Z,100303.11
2018-05-23T01:50:34.215Z,100305.38
2018-05-23T01:51:39.983Z,100300.23
2018-05-23T01:52:45.735Z,100298.77
2018-05-23T01:53:51.474Z,100298.71
2018-05-23T01:54:57.232Z,100299.08
2018-05-23T01:56:02.976Z,100303.42
2018-05-23T01:57:09.510Z,100298.61
2018-05-23T01:58:15.256Z,100299.45
2018-05-23T01:59:21.025Z,100296.38
2018-05-23T02:00:27.543Z,100299.51
2018-05-23T02:01:33.288Z,100295.22
2018-05-23T02:02:39.282Z,100293.30
2018-05-23T02:03:45.800Z,100293.92
2018-05-23T02:04:51.769Z,100297.11
2018-05-23T02:05:57.511Z,100293.66
2018-05-23T02:07:04.026Z,100292.39
2018-05-23T02:08:09.791Z,100302.61
2018-05-23T02:09:15.545Z,100293.86
2018-05-23T02:10:21.321Z,100296.55
2018-05-23T02:11:28.184Z,100299.15
2018-05-23T02:12:33.939Z,100301.84
2018-05-23T02:13:39.931Z,100299.25
2018-05-23T02:14:45.685Z,100301.84
2018-05-23T02:15:51.435Z,100300.09
2018-05-23T02:16:57.191Z,100298.94
2018-05-23T02:18:03.965Z,100304.70
2018-05-23T02:19:11.395Z,100299.50
2018-05-23T02:20:17.152Z,100302.53
2018-05-23T02:21:22.900Z,100301.34
2018-05-23T02:22:28.659Z,100296.53
2018-05-23T02:23:35.192Z,100303.25
2018-05-23T02:24:40.972Z,100301.13
2018-05-23T02:25:46.400Z,100302.59
2018-05-23T02:26:52.923Z,100301.80
2018-05-23T02:27:58.675Z,100298.83
2018-05-23T02:29:04.431Z,100300.63
2018-05-23T02:30:10.242Z,100297.28
2018-05-23T02:31:15.987Z,100302.63
2018-05-23T02:32:21.765Z,100305.31
2018-05-23T02:33:28.296Z,100305.31
2018-05-23T02:34:34.033Z,100295.69
2018-05-23T02:35:39.822Z,100310.72
2018-05-23T02:36:45.576Z,100307.73
2018-05-23T02:37:51.555Z,100305.66
2018-05-23T02:38:57.304Z,100305.77
2018-05-23T02:40:03.120Z,100312.04
2018-05-23T02:41:08.896Z,100314.79
2018-05-23T02:42:14.642Z,100314.89
2018-05-23T02:43:20.620Z,100313.38
2018-05-23T02:44:27.351Z,100314.76
2018-05-23T02:45:33.108Z,100317.88
2018-05-23T02:46:39.316Z,100320.77
2018-05-23T02:47:45.079Z,100318.06
2018-05-23T02:48:50.819Z,100330.59
2018-05-23T02:49:56.601Z,100333.06
2018-05-23T02:51:03.128Z,100337.17
2018-05-23T02:52:08.916Z,100329.85
2018-05-23T02:53:14.670Z,100336.03
2018-05-23T02:54:20.463Z,100329.58
2018-05-23T02:55:26.235Z,100331.38
2018-05-23T02:56:31.983Z,100332.22
2018-05-23T02:57:37.777Z,100328.31
2018-05-23T02:58:43.714Z,100332.27
2018-05-23T02:59:50.413Z,100331.80
2018-05-23T03:00:56.487Z,100331.85
2018-05-23T03:02:02.241Z,100332.46
2018-05-23T03:03:08.158Z,100336.29
2018-05-23T03:04:14.764Z,100331.00
2018-05-23T03:05:20.512Z,100331.00
2018-05-23T03:06:26.268Z,100337.70
2018-05-23T03:07:32.085Z,100333.31
2018-05-23T03:08:38.047Z,100338.64
2018-05-23T03:09:43.818Z,100338.27
2018-05-23T03:10:50.344Z,100339.22
2018-05-23T03:11:56.094Z,100341.91
2018-05-23T03:13:01.847Z,100350.22
2018-05-23T03:14:07.623Z,100349.37
2018-05-23T03:15:13.383Z,100347.58
2018-05-23T03:16:19.127Z,100352.34
2018-05-23T03:17:24.877Z,100347.95
2018-05-23T03:18:30.625Z,100353.19
2018-05-23T03:19:36.415Z,100349.65
2018-05-23T03:20:42.951Z,100351.39
2018-05-23T03:21:48.722Z,100347.85
2018-05-23T03:22:54.488Z,100352.34
2018-05-23T03:24:00.239Z,100350.97
2018-05-23T03:25:05.358Z,100354.09
2018-05-23T03:26:11.111Z,100352.87
2018-05-23T03:27:16.874Z,100358.11
2018-05-23T03:28:22.631Z,100360.85
2018-05-23T03:29:28.400Z,100361.59
2018-05-23T03:30:34.181Z,100362.36
2018-05-23T03:31:39.988Z,100361.45
2018-05-23T03:32:45.774Z,100361.93
2018-05-23T03:33:51.527Z,100359.11
2018-05-23T03:34:57.318Z,100362.97
2018-05-23T03:36:03.107Z,100359.05
2018-05-23T03:37:08.876Z,100354.98
2018-05-23T03:38:15.401Z,100360.09
2018-05-23T03:39:21.195Z,100357.30
2018-05-23T03:40:27.707Z,100360.27
2018-05-23T03:41:33.480Z,100363.67
2018-05-23T03:42:40.010Z,100368.91
2018-05-23T03:43:45.560Z,100364.00
2018-05-23T03:44:51.307Z,100363.95
2018-05-23T03:45:58.048Z,100363.34
2018-05-23T03:47:03.832Z,100371.17
2018-05-23T03:48:10.355Z,100373.66
2018-05-23T03:49:16.103Z,100370.89
2018-05-23T03:50:21.859Z,100371.63
2018-05-23T03:51:27.611Z,100371.34
2018-05-23T03:52:34.165Z,100370.88
2018-05-23T03:53:40.697Z,100369.39
2018-05-23T03:54:46.448Z,100372.89
2018-05-23T03:55:52.206Z,100375.83
2018-05-23T03:56:58.946Z,100379.74
2018-05-23T03:58:04.722Z,100378.89
2018-05-23T03:59:11.623Z,100378.84
2018-05-23T04:00:33.919Z,100382.52
2018-05-23T04:01:56.552Z,100382.95
2018-05-23T04:03:19.863Z,100384.27
2018-05-23T04:04:42.377Z,100389.14
2018-05-23T04:06:04.868Z,100383.32
2018-05-23T04:07:30.240Z,100390.46
2018-05-23T04:08:35.835Z,100389.52
2018-05-23T04:09:41.711Z,100386.81
2018-05-23T04:10:47.594Z,100389.17
2018-05-23T04:11:54.135Z,100387.14
2018-05-23T04:12:59.914Z,100382.16
2018-05-23T04:14:07.036Z,100382.53
2018-05-23T04:15:12.789Z,100394.87
2018-05-23T04:16:18.563Z,100391.19
2018-05-23T04:17:25.084Z,100394.26
2018-05-23T04:18:30.575Z,100391.88
2018-05-23T04:19:36.352Z,100390.93
2018-05-23T04:20:42.167Z,100392.55
2018-05-23T04:21:48.254Z,100393.71
2018-05-23T04:22:54.055Z,100394.83
2018-05-23T04:23:59.819Z,100401.34
2018-05-23T04:25:05.720Z,100401.45
2018-05-23T04:26:12.242Z,100406.11
2018-05-23T04:27:18.004Z,100407.38
2018-05-23T04:28:23.769Z,100409.13
2018-05-23T04:29:29.541Z,100411.64
2018-05-23T04:30:35.367Z,100412.12
2018-05-23T04:31:41.356Z,100415.98
2018-05-23T04:32:47.140Z,100411.11
2018-05-23T04:33:53.119Z,100415.27
2018-05-23T04:34:58.887Z,100417.02
2018-05-23T04:36:04.682Z,100421.78
2018-05-23T04:37:10.445Z,100421.06
2018-05-23T04:38:16.208Z,100421.39
2018-05-23T04:39:22.076Z,100429.75
2018-05-23T04:40:28.713Z,100431.92
2018-05-23T04:41:34.484Z,100424.27
2018-05-23T04:42:40.247Z,100430.31
2018-05-23T04:43:46.016Z,100430.16
2018-05-23T04:44:52.562Z,100431.19
2018-05-23T04:45:58.340Z,100427.45
2018-05-23T04:47:04.144Z,100428.14
2018-05-23T04:48:09.908Z,100427.10
2018-05-23T04:49:15.666Z,100431.34
2018-05-23T04:50:21.459Z,100433.69
2018-05-23T04:51:27.987Z,100437.56
2018-05-23T04:52:33.856Z,100436.47
2018-05-23T04:53:40.388Z,100429.98
2018-05-23T04:54:45.821Z,100437.77
2018-05-23T04:55:51.603Z,100435.66
2018-05-23T04:56:57.370Z,100432.48
2018-05-23T04:58:03.188Z,100432.61
2018-05-23T04:59:09.167Z,100437.98
2018-05-23T05:00:15.846Z,100443.35
2018-05-23T05:01:21.601Z,100443.62
2018-05-23T05:02:27.388Z,100447.72
2018-05-23T05:03:33.178Z,100451.02
2018-05-23T05:04:38.927Z,100457.37
2018-05-23T05:05:44.688Z,100457.50
2018-05-23T05:06:51.203Z,100450.52
2018-05-23T05:07:56.978Z,100455.29
2018-05-23T05:09:02.769Z,100456.59
2018-05-23T05:10:08.546Z,100454.55
2018-05-23T05:11:14.519Z,100459.97
2018-05-23T05:12:21.374Z,100460.09
2018-05-23T05:13:27.926Z,100465.82
2018-05-23T05:14:33.940Z,100465.71
2018-05-23T05:15:39.683Z,100463.23
2018-05-23T05:16:45.458Z,100467.86
2018-05-23T05:17:51.231Z,100474.22
2018-05-23T05:18:57.771Z,100478.31
2018-05-23T05:20:03.563Z,100474.98
2018-05-23T05:21:09.328Z,100476.01
2018-05-23T05:22:15.092Z,100481.57
2018-05-23T05:23:20.861Z,100485.67
2018-05-23T05:24:27.384Z,100487.67
2018-05-23T05:25:32.823Z,100487.95
2018-05-23T05:26:38.605Z,100490.87
2018-05-23T05:27:44.371Z,100491.46
2018-05-23T05:28:50.141Z,100488.92
2018-05-23T05:29:56.031Z,100486.95
2018-05-23T05:31:01.807Z,100488.39
2018-05-23T05:32:07.568Z,100486.86
2018-05-23T05:33:13.333Z,100494.71
2018-05-23T05:34:19.101Z,100488.75
2018-05-23T05:35:24.875Z,100484.94
2018-05-23T05:36:30.661Z,100498.02
2018-05-23T05:37:37.186Z,100489.83
2018-05-23T05:38:43.028Z,100493.02
2018-05-23T05:39:49.696Z,100494.39
2018-05-23T05:40:55.467Z,100493.28
2018-05-23T05:42:01.554Z,100498.85
2018-05-23T05:43:07.366Z,100496.88
2018-05-23T05:44:14.448Z,100499.25
2018-05-23T05:45:20.059Z,100504.41
2018-05-23T05:46:25.823Z,100497.77
2018-05-23T05:47:32.363Z,100500.14
2018-05-23T05:48:40.332Z,100501.20
2018-05-23T05:49:46.468Z,100504.93
2018-05-23T05:50:52.216Z,100504.22
2018-05-23T05:51:57.995Z,100508.25
2018-05-23T05:53:04.548Z,100508.64
2018-05-23T05:54:10.319Z,100511.28
2018-05-23T05:55:16.071Z,100512.80
2018-05-23T05:56:21.827Z,100515.02
2018-05-23T05:57:27.255Z,100519.20
2018-05-23T05:58:33.803Z,100519.13
2018-05-23T05:59:39.572Z,100513.23
2018-05-23T06:00:45.326Z,100515.38
2018-05-23T06:01:51.097Z,100517.94
2018-05-23T06:02:57.833Z,100515.57
2018-05-23T06:04:03.612Z,100511.70
2018-05-23T06:05:10.132Z,100515.64
2018-05-23T06:06:15.887Z,100511.19
2018-05-23T06:07:21.637Z,100513.58
2018-05-23T06:08:27.389Z,100513.34
2018-05-23T06:09:33.215Z,100507.94
2018-05-23T06:10:39.141Z,100513.85
2018-05-23T06:11:44.901Z,100512.44
2018-05-23T06:12:50.654Z,100511.83
2018-05-23T06:13:56.411Z,100514.52
2018-05-23T06:15:02.958Z,100518.14
2018-05-23T06:16:08.723Z,100524.13
2018-05-23T06:17:15.071Z,100513.98
2018-05-23T06:18:21.591Z,100517.59
2018-05-23T06:19:27.352Z,100518.25
2018-05-23T06:20:33.139Z,100522.24
2018-05-23T06:21:38.890Z,100524.19
2018-05-23T06:22:44.634Z,100526.63
2018-05-23T06:23:50.727Z,100524.06
2018-05-23T06:24:56.479Z,100528.31
2018-05-23T06:26:02.253Z,100525.10
2018-05-23T06:27:07.996Z,100530.30
2018-05-23T06:28:13.744Z,100531.28
2018-05-23T06:29:19.492Z,100533.48
2018-05-23T06:30:25.270Z,100538.19
2018-05-23T06:31:31.220Z,100532.25
2018-05-23T06:32:36.987Z,100534.14
2018-05-23T06:33:43.550Z,100533.87
2018-05-23T06:34:49.323Z,100533.67
2018-05-23T06:35:55.082Z,100541.14
2018-05-23T06:37:00.873Z,100531.28
2018-05-23T06:38:07.391Z,100535.23
2018-05-23T06:39:13.155Z,100535.39
2018-05-23T06:40:18.916Z,100536.09
2018-05-23T06:41:25.432Z,100542.67
2018-05-23T06:42:31.198Z,100536.70
2018-05-23T06:43:37.007Z,100536.42
2018-05-23T06:44:43.715Z,100538.13
2018-05-23T06:45:50.265Z,100540.66
2018-05-23T06:46:56.013Z,100544.41
2018-05-23T06:48:01.779Z,100545.45
2018-05-23T06:49:07.523Z,100539.38
2018-05-23T06:50:13.271Z,100548.36
2018-05-23T06:51:19.023Z,100550.62
2018-05-23T06:52:24.779Z,100546.34
2018-05-23T06:53:30.557Z,100547.20
2018-05-23T06:54:37.082Z,100543.25
2018-05-23T06:55:42.904Z,100546.05
2018-05-23T06:56:48.794Z,100546.16
2018-05-23T06:57:54.563Z,100544.88
2018-05-23T06:59:01.113Z,100549.36
2018-05-23T07:00:07.629Z,100544.67
2018-05-23T07:01:13.375Z,100546.55
2018-05-23T07:02:19.115Z,100552.52
2018-05-23T07:03:24.866Z,100552.52
2018-05-23T07:04:30.641Z,100556.69
2018-05-23T07:05:37.174Z,100554.73
2018-05-23T07:06:42.955Z,100553.67
2018-05-23T07:07:48.723Z,100555.62
2018-05-23T07:08:54.483Z,100561.70
2018-05-23T07:10:00.259Z,100556.56
2018-05-23T07:11:06.112Z,100557.42
2018-05-23T07:12:12.007Z,100564.39
2018-05-23T07:13:17.751Z,100561.64
2018-05-23T07:14:23.509Z,100559.97
2018-05-23T07:15:29.308Z,100566.48
2018-05-23T07:16:35.116Z,100565.54
2018-05-23T07:17:40.877Z,100568.31
2018-05-23T07:18:47.443Z,100564.56
2018-05-23T07:19:53.707Z,100571.22
2018-05-23T07:21:00.337Z,100565.24
2018-05-23T07:22:06.086Z,100565.50
2018-05-23T07:23:12.608Z,100564.50
2018-05-23T07:24:18.366Z,100565.19
2018-05-23T07:25:24.117Z,100572.95
2018-05-23T07:26:29.919Z,100573.28
2018-05-23T07:27:35.659Z,100570.20
2018-05-23T07:28:41.405Z,100571.92
2018-05-23T07:29:47.179Z,100572.66
2018-05-23T07:30:52.942Z,100576.52
2018-05-23T07:31:58.714Z,100566.22
2018-05-23T07:33:04.465Z,100568.59
2018-05-23T07:34:10.219Z,100569.25
2018-05-23T07:35:15.987Z,100567.93
2018-05-23T07:36:21.731Z,100565.20
2018-05-23T07:37:28.282Z,100561.17
2018-05-23T07:38:34.031Z,100566.48
2018-05-23T07:39:39.766Z,100566.48
2018-05-23T07:40:45.508Z,100568.02
2018-05-23T07:41:51.267Z,100576.20
2018-05-23T07:42:57.037Z,100572.04
2018-05-23T07:44:02.787Z,100572.52
2018-05-23T07:45:09.339Z,100568.34
2018-05-23T07:46:15.091Z,100580.33
2018-05-23T07:47:21.604Z,100577.98
2018-05-23T07:48:27.378Z,100568.47
2018-05-23T07:49:33.131Z,100569.89
2018-05-23T07:50:39.649Z,100573.60
2018-05-23T07:51:45.427Z,100575.03
2018-05-23T07:52:51.171Z,100578.84
2018-05-23T07:53:57.711Z,100582.77
2018-05-23T07:55:03.466Z,100577.13
2018-05-23T07:56:09.241Z,100575.53
2018-05-23T07:57:14.331Z,100580.47
2018-05-23T07:58:20.073Z,100584.59
2018-05-23T07:59:25.852Z,100580.80
2018-05-23T08:00:31.609Z,100584.00
2018-05-23T08:01:37.375Z,100579.06
2018-05-23T08:02:43.186Z,100587.31
2018-05-23T08:03:48.932Z,100582.88
2018-05-23T08:04:54.708Z,100590.13
2018-05-23T08:06:00.460Z,100585.67
2018-05-23T08:07:05.875Z,100587.97
2018-05-23T08:08:11.626Z,100583.80
2018-05-23T08:09:17.268Z,100591.34
2018-05-23T08:10:23.030Z,100596.59
2018-05-23T08:11:29.559Z,100586.22
2018-05-23T08:12:35.815Z,100592.08
2018-05-23T08:13:42.066Z,100591.92
2018-05-23T08:14:48.322Z,100592.55
2018-05-23T08:15:54.578Z,100590.20
2018-05-23T08:17:00.831Z,100593.67
2018-05-23T08:18:06.742Z,100595.10
2018-05-23T08:19:12.222Z,100589.59
2018-05-23T08:20:17.711Z,100592.79
2018-05-23T08:21:23.217Z,100592.67
2018-05-23T08:22:28.751Z,100589.61
2018-05-23T08:23:34.241Z,100588.74
2018-05-23T08:24:40.506Z,100588.13
2018-05-23T08:25:46.959Z,100596.98
2018-05-23T08:26:53.223Z,100594.70
2018-05-23T08:27:58.721Z,100596.00
2018-05-23T08:29:04.229Z,100595.98
2018-05-23T08:30:09.718Z,100596.33
2018-05-23T08:31:15.987Z,100596.74
2018-05-23T08:32:21.495Z,100597.67
2018-05-23T08:33:27.746Z,100598.00
2018-05-23T08:34:33.233Z,100598.72
2018-05-23T08:35:38.724Z,100600.05
2018-05-23T08:36:45.182Z,100607.64
2018-05-23T08:37:50.678Z,100602.17
2018-05-23T08:38:56.160Z,100595.30
2018-05-23T08:40:02.420Z,100604.85
2018-05-23T08:41:08.663Z,100599.47
2018-05-23T08:42:14.918Z,100611.44
2018-05-23T08:43:21.195Z,100610.61
2018-05-23T08:44:26.943Z,100602.50
2018-05-23T08:45:33.475Z,100605.66
2018-05-23T08:46:39.219Z,100602.13
2018-05-23T08:47:44.977Z,100604.05
2018-05-23T08:48:50.768Z,100601.22
2018-05-23T08:49:56.525Z,100604.98
2018-05-23T08:51:02.279Z,100598.05
2018-05-23T08:52:08.038Z,100607.63
2018-05-23T08:53:13.783Z,100605.05
2018-05-23T08:54:19.567Z,100602.30
2018-05-23T08:55:25.316Z,100598.77
2018-05-23T08:56:31.075Z,100614.61
2018-05-23T08:57:36.837Z,100606.08
2018-05-23T08:58:42.584Z,100605.37
2018-05-23T08:59:48.363Z,100609.85
2018-05-23T09:00:54.121Z,100611.62
2018-05-23T09:01:59.873Z,100614.05
2018-05-23T09:03:05.623Z,100611.27
2018-05-23T09:04:11.167Z,100613.13
2018-05-23T09:05:16.938Z,100613.06
2018-05-23T09:06:22.686Z,100617.73
2018-05-23T09:07:29.207Z,100623.22
2018-05-23T09:08:34.964Z,100612.95
2018-05-23T09:09:40.710Z,100616.59
2018-05-23T09:10:46.491Z,100621.28
2018-05-23T09:11:53.001Z,100619.75
2018-05-23T09:12:58.747Z,100616.63
2018-05-23T09:14:04.511Z,100616.70
2018-05-23T09:15:11.027Z,100613.45
2018-05-23T09:16:16.808Z,100613.78
2018-05-23T09:17:22.567Z,100619.88
2018-05-23T09:18:29.081Z,100623.76
2018-05-23T09:19:34.836Z,100633.16
2018-05-23T09:20:40.600Z,100620.20
2018-05-23T09:21:46.380Z,100620.73
2018-05-23T09:22:52.138Z,100615.67
2018-05-23T09:23:57.890Z,100619.45
2018-05-23T09:25:03.651Z,100613.25
2018-05-23T09:26:10.188Z,100614.66
2018-05-23T09:27:15.992Z,100617.61
2018-05-23T09:28:21.747Z,100623.64
2018-05-23T09:29:27.496Z,100627.89
2018-05-23T09:30:33.259Z,100620.44
2018-05-23T09:31:39.017Z,100622.03
2018-05-23T09:32:44.799Z,100615.05
2018-05-23T09:33:50.548Z,100622.28
2018-05-23T09:34:56.294Z,100623.06
2018-05-23T09:36:02.059Z,100618.52
2018-05-23T09:37:07.806Z,100620.59
2018-05-23T09:38:13.571Z,100619.23
2018-05-23T09:39:19.315Z,100617.77
2018-05-23T09:40:25.066Z,100616.95
2018-05-23T09:41:31.599Z,100616.91
2018-05-23T09:42:37.347Z,100613.23
2018-05-23T09:43:43.147Z,100621.25
2018-05-23T09:44:48.940Z,100617.72
2018-05-23T09:45:54.690Z,100620.36
2018-05-23T09:47:00.457Z,100626.10
2018-05-23T09:48:06.216Z,100621.30
2018-05-23T09:49:11.990Z,100611.80
2018-05-23T09:50:17.744Z,100615.61
2018-05-23T09:51:23.491Z,100613.69
2018-05-23T09:52:29.270Z,100609.70
2018-05-23T09:53:35.035Z,100614.86
2018-05-23T09:54:40.803Z,100618.81
2018-05-23T09:55:46.565Z,100617.50
2018-05-23T09:56:52.355Z,100616.99
2018-05-23T09:57:58.124Z,100628.28
2018-05-23T09:59:03.870Z,100617.83
2018-05-23T10:00:09.645Z,100627.19
2018-05-23T10:01:16.175Z,100620.33
2018-05-23T10:02:22.693Z,100622.98
2018-05-23T10:03:28.254Z,100620.34
2018-05-23T10:04:34.272Z,100620.02
2018-05-23T10:05:40.354Z,100619.72
2018-05-23T10:06:46.108Z,100611.20
2018-05-23T10:07:51.869Z,100616.63
2018-05-23T10:08:58.411Z,100612.16
2018-05-23T10:10:03.926Z,100619.41
2018-05-23T10:11:09.704Z,100623.70
2018-05-23T10:12:15.476Z,100616.80
2018-05-23T10:13:21.240Z,100615.95
2018-05-23T10:14:27.003Z,100613.72
2018-05-23T10:15:32.753Z,100611.65
2018-05-23T10:16:38.333Z,100611.32
2018-05-23T10:17:44.842Z,100613.87
2018-05-23T10:18:50.607Z,100618.19
2018-05-23T10:19:56.372Z,100614.12
2018-05-23T10:21:02.910Z,100615.45
2018-05-23T10:22:08.487Z,100612.87
2018-05-23T10:23:14.243Z,100612.97
2018-05-23T10:24:20.073Z,100611.05
2018-05-23T10:25:25.834Z,100616.18
2018-05-23T10:26:31.576Z,100610.20
2018-05-23T10:27:37.537Z,100614.56
2018-05-23T10:28:43.318Z,100611.68
2018-05-23T10:29:49.845Z,100616.18
2018-05-23T10:30:55.615Z,100611.20
2018-05-23T10:32:02.134Z,100609.52
2018-05-23T10:33:07.680Z,100609.97
2018-05-23T10:34:13.414Z,100619.53
2018-05-23T10:35:18.961Z,100617.38
2018-05-23T10:36:24.707Z,100619.16
2018-05-23T10:37:30.459Z,100616.93
2018-05-23T10:38:36.239Z,100614.98
2018-05-23T10:39:42.000Z,100617.11
2018-05-23T10:40:47.759Z,100617.14
2018-05-23T10:41:53.510Z,100622.81
2018-05-23T10:43:00.043Z,100612.66
2018-05-23T10:44:05.491Z,100613.80
2018-05-23T10:45:11.243Z,100611.23
2018-05-23T10:46:17.101Z,100611.38
2018-05-23T10:47:23.767Z,100612.75
2018-05-23T10:48:30.300Z,100613.21
2018-05-23T10:49:36.077Z,100613.27
2018-05-23T10:50:42.144Z,100611.51
2018-05-23T10:51:47.959Z,100613.67
2018-05-23T10:52:53.869Z,100620.52
2018-05-23T10:53:59.439Z,100616.83
2018-05-23T10:55:04.879Z,100619.81
2018-05-23T10:56:10.631Z,100610.26
2018-05-23T10:57:17.251Z,100605.91
2018-05-23T10:58:23.123Z,100608.28
2018-05-23T10:59:28.870Z,100610.17
2018-05-23T11:00:35.411Z,100617.38
2018-05-23T11:01:41.179Z,100612.70
2018-05-23T11:02:47.765Z,100616.53
2018-05-23T11:03:53.673Z,100619.81
2018-05-23T11:04:59.432Z,100614.14
2018-05-23T11:06:05.978Z,100609.28
2018-05-23T11:07:11.729Z,100616.33
2018-05-23T11:08:18.244Z,100608.31
2018-05-23T11:09:24.329Z,100615.39
2018-05-23T11:10:30.075Z,100618.56
2018-05-23T11:11:36.615Z,100617.82
2018-05-23T11:12:42.382Z,100613.77
2018-05-23T11:13:48.903Z,100614.78
2018-05-23T11:14:54.690Z,100607.75
2018-05-23T11:16:01.422Z,100613.06
2018-05-23T11:17:07.196Z,100609.41
2018-05-23T11:18:13.722Z,100614.36
2018-05-23T11:19:19.481Z,100611.80
2018-05-23T11:20:25.231Z,100604.84
2018-05-23T11:21:31.761Z,100608.66
2018-05-23T11:22:37.546Z,100608.20
2018-05-23T11:23:43.294Z,100613.02
2018-05-23T11:24:49.054Z,100605.27
2018-05-23T11:25:54.812Z,100607.40
2018-05-23T11:27:00.593Z,100605.82
2018-05-23T11:28:06.567Z,100601.91
2018-05-23T11:29:12.317Z,100601.35
2018-05-23T11:30:18.090Z,100605.91
2018-05-23T11:31:23.837Z,100598.59
2018-05-23T11:32:29.596Z,100604.03
2018-05-23T11:33:35.638Z,100604.69
2018-05-23T11:34:41.400Z,100602.95
2018-05-23T11:35:47.936Z,100611.64
2018-05-23T11:36:53.686Z,100596.56
2018-05-23T11:37:59.466Z,100600.75
2018-05-23T11:39:04.359Z,100598.83
2018-05-23T11:40:10.887Z,100601.28
2018-05-23T11:41:16.819Z,100609.55
2018-05-23T11:42:22.582Z,100604.20
2018-05-23T11:43:28.342Z,100606.14
2018-05-23T11:44:34.126Z,100598.36
2018-05-23T11:45:39.887Z,100602.80
2018-05-23T11:46:45.648Z,100602.72
2018-05-23T11:47:51.412Z,100597.25
2018-05-23T11:48:57.941Z,100599.20
2018-05-23T11:50:03.945Z,100595.56
2018-05-23T11:51:09.688Z,100595.20
2018-05-23T11:52:15.505Z,100600.46
2018-05-23T11:53:22.162Z,100591.41
2018-05-23T11:54:27.933Z,100591.23
2018-05-23T11:55:33.712Z,100595.31
2018-05-23T11:56:39.469Z,100599.45
2018-05-23T11:57:45.227Z,100596.98
2018-05-23T11:58:50.982Z,100599.36
2018-05-23T11:59:57.507Z,100597.98
2018-05-23T12:01:03.281Z,100596.05
2018-05-23T12:02:09.799Z,100596.84
2018-05-23T12:03:15.566Z,100596.52
2018-05-23T12:04:22.102Z,100588.98
2018-05-23T12:05:27.856Z,100592.79
2018-05-23T12:06:34.415Z,100585.09
2018-05-23T12:07:39.876Z,100587.18
2018-05-23T12:08:46.426Z,100582.46
2018-05-23T12:09:52.170Z,100590.99
2018-05-23T12:10:57.919Z,100581.88
2018-05-23T12:12:03.691Z,100584.53
2018-05-23T12:13:09.439Z,100585.62
2018-05-23T12:14:15.192Z,100584.70
2018-05-23T12:15:20.951Z,100586.72
2018-05-23T12:17:32.670Z,100584.30
2018-05-23T12:18:39.203Z,100594.70
2018-05-23T12:19:45.472Z,100596.44
2018-05-23T12:20:51.368Z,100591.17
2018-05-23T12:21:57.131Z,100594.78
2018-05-23T12:23:02.934Z,100591.26
2018-05-23T12:24:09.462Z,100602.39
2018-05-23T12:25:15.995Z,100600.35
2018-05-23T12:26:21.755Z,100600.34
2018-05-23T12:27:27.530Z,100603.70
2018-05-23T12:28:34.199Z,100601.53
2018-05-23T12:29:40.732Z,100601.04
2018-05-23T12:30:46.504Z,100606.85
2018-05-23T12:31:52.346Z,100610.23
2018-05-23T12:32:58.147Z,100602.16
2018-05-23T12:34:03.923Z,100606.62
2018-05-23T12:35:09.773Z,100609.67